createdAt,value
2022-10-16T00:01:36.482Z,97056.00
2022-10-16T00:04:03.979Z,97054.00
2022-10-16T00:06:32.591Z,97054.00
2022-10-16T00:08:59.835Z,97060.00
2022-10-16T00:11:31.334Z,97043.00
2022-10-16T00:14:01.673Z,97045.00
2022-10-16T00:16:29.664Z,97057.00
2022-10-16T00:18:57.208Z,97052.00
2022-10-16T00:21:28.214Z,97059.00
2022-10-16T00:24:01.829Z,97063.00
2022-10-16T00:26:31.698Z,97068.00
2022-10-16T00:28:59.249Z,97063.00
2022-10-16T00:31:26.285Z,97066.00
2022-10-16T00:33:53.082Z,97063.00
2022-10-16T00:36:24.441Z,97056.00
2022-10-16T00:38:56.708Z,97061.00
2022-10-16T00:41:25.733Z,97049.00
2022-10-16T00:44:05.029Z,97062.00
2022-10-16T00:46:41.809Z,97059.00
2022-10-16T00:49:15.876Z,97049.00
2022-10-16T00:51:47.846Z,97050.00
2022-10-16T00:54:26.152Z,97059.00
2022-10-16T00:56:55.213Z,97055.00
2022-10-16T00:59:42.377Z,97066.00
2022-10-16T01:02:14.892Z,97067.00
2022-10-16T01:04:49.612Z,97073.00
2022-10-16T01:07:41.631Z,97063.00
2022-10-16T01:10:58.280Z,97068.00
2022-10-16T01:13:41.567Z,97073.00
2022-10-16T01:16:28.305Z,97070.00
2022-10-16T01:19:36.061Z,97077.00
2022-10-16T01:22:04.409Z,97071.00
2022-10-16T01:24:49.458Z,97074.00
2022-10-16T01:27:25.378Z,97070.00
2022-10-16T01:29:58.482Z,97061.00
2022-10-16T01:32:57.304Z,97069.00
2022-10-16T01:35:54.521Z,97059.00
2022-10-16T01:38:35.884Z,97056.00
2022-10-16T01:41:11.243Z,97072.00
2022-10-16T01:43:47.599Z,97071.00
2022-10-16T01:46:18.116Z,97066.00
2022-10-16T01:48:44.875Z,97052.00
2022-10-16T01:51:14.581Z,97063.00
2022-10-16T01:53:46.829Z,97071.00
2022-10-16T01:56:16.412Z,97064.00
2022-10-16T01:58:52.178Z,97064.00
2022-10-16T02:01:23.069Z,97062.00
2022-10-16T02:03:55.419Z,97059.00
2022-10-16T02:06:23.691Z,97062.00
2022-10-16T02:08:50.640Z,97068.00
2022-10-16T02:11:17.382Z,97065.00
2022-10-16T02:13:49.691Z,97073.00
2022-10-16T02:16:16.613Z,97081.00
2022-10-16T02:18:45.103Z,97084.00
2022-10-16T02:21:24.604Z,97075.00
2022-10-16T02:24:04.704Z,97082.00
2022-10-16T02:26:52.664Z,97082.00
2022-10-16T02:29:27.543Z,97084.00
2022-10-16T02:32:01.124Z,97086.00
2022-10-16T02:34:29.522Z,97090.00
2022-10-16T02:36:58.142Z,97086.00
2022-10-16T02:39:25.930Z,97089.00
2022-10-16T02:41:52.755Z,97087.00
2022-10-16T02:44:19.505Z,97093.00
2022-10-16T02:46:46.229Z,97089.00
2022-10-16T02:49:13.030Z,97084.00
2022-10-16T02:51:39.878Z,97084.00
2022-10-16T02:54:06.685Z,97087.00
2022-10-16T02:56:33.454Z,97084.00
2022-10-16T02:59:00.370Z,97083.00
2022-10-16T03:01:27.195Z,97091.00
2022-10-16T03:03:54.055Z,97087.00
2022-10-16T03:06:20.816Z,97080.00
2022-10-16T03:08:47.571Z,97082.00
2022-10-16T03:11:14.337Z,97082.00
2022-10-16T03:13:41.080Z,97086.00
2022-10-16T03:16:08.195Z,97096.00
2022-10-16T03:18:35.026Z,97092.00
2022-10-16T03:21:01.845Z,97095.00
2022-10-16T03:25:55.841Z,97108.00
2022-10-16T03:28:22.662Z,97106.00
2022-10-16T03:30:49.446Z,97104.00
2022-10-16T03:33:16.198Z,97110.00
2022-10-16T03:35:42.997Z,97112.00
2022-10-16T03:38:09.714Z,97109.00
2022-10-16T03:40:36.574Z,97110.00
2022-10-16T03:43:03.361Z,97110.00
2022-10-16T03:45:30.132Z,97107.00
2022-10-16T03:47:56.869Z,97099.00
2022-10-16T03:50:23.625Z,97112.00
2022-10-16T03:52:50.504Z,97114.00
2022-10-16T03:55:17.254Z,97127.00
2022-10-16T03:57:44.011Z,97124.00
2022-10-16T04:00:12.082Z,97129.00
2022-10-16T04:02:38.910Z,97141.00
2022-10-16T04:05:06.218Z,97130.00
2022-10-16T04:07:33.014Z,97130.00
2022-10-16T04:10:00.098Z,97127.00
2022-10-16T04:12:27.699Z,97134.00
2022-10-16T04:14:54.471Z,97124.00
2022-10-16T04:17:21.531Z,97136.00
2022-10-16T04:19:48.266Z,97138.00
2022-10-16T04:22:15.061Z,97133.00
2022-10-16T04:24:41.915Z,97135.00
2022-10-16T04:27:08.681Z,97136.00
2022-10-16T04:29:35.442Z,97145.00
2022-10-16T04:32:02.215Z,97142.00
2022-10-16T04:34:28.971Z,97147.00
2022-10-16T04:36:55.730Z,97150.00
2022-10-16T04:39:22.518Z,97159.00
2022-10-16T04:41:49.246Z,97158.00
2022-10-16T04:44:16.035Z,97149.00
2022-10-16T04:46:42.795Z,97156.00
2022-10-16T04:49:09.546Z,97153.00
2022-10-16T04:51:36.337Z,97161.00
2022-10-16T04:54:03.754Z,97159.00
2022-10-16T04:56:30.514Z,97160.00
2022-10-16T04:58:57.289Z,97153.00
2022-10-16T05:01:24.046Z,97159.00
2022-10-16T05:03:50.802Z,97159.00
2022-10-16T05:06:17.556Z,97152.00
2022-10-16T05:08:44.297Z,97157.00
2022-10-16T05:11:11.056Z,97159.00
2022-10-16T05:13:37.807Z,97158.00
2022-10-16T05:16:04.905Z,97164.00
2022-10-16T05:18:31.693Z,97171.00
2022-10-16T05:20:58.425Z,97172.00
2022-10-16T05:23:25.278Z,97168.00
2022-10-16T05:25:59.111Z,97175.00
2022-10-16T05:28:31.276Z,97169.00
2022-10-16T05:30:58.753Z,97167.00
2022-10-16T05:33:26.758Z,97166.00
2022-10-16T05:35:53.587Z,97173.00
2022-10-16T05:38:20.459Z,97178.00
2022-10-16T05:40:54.173Z,97180.00
2022-10-16T05:43:21.605Z,97195.00
2022-10-16T05:45:59.637Z,97195.00
2022-10-16T05:48:26.899Z,97187.00
2022-10-16T05:51:10.101Z,97189.00
2022-10-16T05:53:39.340Z,97190.00
2022-10-16T05:56:09.923Z,97190.00
2022-10-16T05:58:38.592Z,97196.00
2022-10-16T06:01:17.987Z,97195.00
2022-10-16T06:03:45.335Z,97196.00
2022-10-16T06:06:17.738Z,97190.00
2022-10-16T06:08:46.470Z,97197.00
2022-10-16T06:11:19.610Z,97211.00
2022-10-16T06:13:50.397Z,97208.00
2022-10-16T06:16:17.218Z,97226.00
2022-10-16T06:18:44.174Z,97220.00
2022-10-16T06:21:21.057Z,97220.00
2022-10-16T06:23:49.259Z,97218.00
2022-10-16T06:26:20.840Z,97211.00
2022-10-16T06:28:48.482Z,97214.00
2022-10-16T06:31:16.267Z,97215.00
2022-10-16T06:33:43.073Z,97217.00
2022-10-16T06:36:13.335Z,97216.00
2022-10-16T06:38:40.537Z,97213.00
2022-10-16T06:41:11.091Z,97209.00
2022-10-16T06:43:37.862Z,97212.00
2022-10-16T06:46:08.756Z,97211.00
2022-10-16T06:48:35.557Z,97215.00
2022-10-16T06:51:06.488Z,97218.00
2022-10-16T06:53:39.901Z,97225.00
2022-10-16T06:56:18.463Z,97218.00
2022-10-16T06:58:46.896Z,97215.00
2022-10-16T07:01:14.947Z,97217.00
2022-10-16T07:03:43.928Z,97218.00
2022-10-16T07:06:14.344Z,97223.00
2022-10-16T07:08:44.066Z,97227.00
2022-10-16T07:11:17.606Z,97234.00
2022-10-16T07:13:50.752Z,97248.00
2022-10-16T07:16:24.541Z,97252.00
2022-10-16T07:18:55.189Z,97249.00
2022-10-16T07:21:23.514Z,97264.00
2022-10-16T07:23:55.346Z,97264.00
2022-10-16T07:26:23.626Z,97273.00
2022-10-16T07:28:51.113Z,97291.00
2022-10-16T07:31:22.694Z,97290.00
2022-10-16T07:33:50.532Z,97286.00
2022-10-16T07:36:20.150Z,97290.00
2022-10-16T07:38:48.300Z,97295.00
2022-10-16T07:41:18.898Z,97300.00
2022-10-16T07:43:51.605Z,97299.00
2022-10-16T07:46:20.645Z,97294.00
2022-10-16T07:48:48.859Z,97299.00
2022-10-16T07:51:19.504Z,97295.00
2022-10-16T07:53:47.759Z,97300.00
2022-10-16T07:56:16.111Z,97298.00
2022-10-16T07:58:43.247Z,97294.00
2022-10-16T08:01:14.272Z,97291.00
2022-10-16T08:03:50.936Z,97313.00
2022-10-16T08:06:22.090Z,97309.00
2022-10-16T08:08:52.669Z,97312.00
2022-10-16T08:11:19.746Z,97322.00
2022-10-16T08:13:46.531Z,97313.00
2022-10-16T08:16:13.396Z,97318.00
2022-10-16T08:18:41.918Z,97311.00
2022-10-16T08:21:20.351Z,97313.00
2022-10-16T08:23:52.906Z,97318.00
2022-10-16T08:26:23.871Z,97330.00
2022-10-16T08:28:52.497Z,97335.00
2022-10-16T08:31:19.892Z,97333.00
2022-10-16T08:33:48.112Z,97343.00
2022-10-16T08:36:16.414Z,97347.00
2022-10-16T08:38:43.368Z,97348.00
2022-10-16T08:41:33.666Z,97340.00
2022-10-16T08:44:44.416Z,97348.00
2022-10-16T08:47:51.480Z,97354.00
2022-10-16T08:50:28.906Z,97348.00
2022-10-16T08:52:56.881Z,97352.00
2022-10-16T08:55:53.546Z,97352.00
2022-10-16T08:58:31.684Z,97364.00
2022-10-16T09:01:02.826Z,97370.00
2022-10-16T09:03:38.562Z,97369.00
2022-10-16T09:06:14.188Z,97374.00
2022-10-16T09:09:24.267Z,97372.00
2022-10-16T09:12:03.982Z,97367.00
2022-10-16T09:14:45.994Z,97376.00
2022-10-16T09:17:51.456Z,97370.00
2022-10-16T09:20:31.741Z,97371.00
2022-10-16T09:23:22.457Z,97370.00
2022-10-16T09:25:51.986Z,97367.00
2022-10-16T09:28:19.584Z,97363.00
2022-10-16T09:30:49.445Z,97368.00
2022-10-16T09:33:18.707Z,97361.00
2022-10-16T09:35:49.719Z,97370.00
2022-10-16T09:38:37.611Z,97363.00
2022-10-16T09:41:20.795Z,97363.00
2022-10-16T09:43:57.115Z,97371.00
2022-10-16T09:46:30.342Z,97366.00
2022-10-16T09:49:04.657Z,97367.00
2022-10-16T09:51:38.249Z,97376.00
2022-10-16T09:54:11.098Z,97376.00
2022-10-16T09:56:42.239Z,97380.00
2022-10-16T09:59:18.505Z,97381.00
2022-10-16T10:01:55.940Z,97375.00
2022-10-16T10:04:26.604Z,97377.00
2022-10-16T10:06:56.760Z,97380.00
2022-10-16T10:09:31.825Z,97402.00
2022-10-16T10:12:05.302Z,97389.00
2022-10-16T10:14:44.009Z,97391.00
2022-10-16T10:17:18.133Z,97392.00
2022-10-16T10:19:56.519Z,97397.00
2022-10-16T10:22:32.450Z,97399.00
2022-10-16T10:25:14.576Z,97408.00
2022-10-16T10:28:19.969Z,97407.00
2022-10-16T10:31:07.711Z,97408.00
2022-10-16T10:34:17.962Z,97399.00
2022-10-16T10:36:45.486Z,97402.00
2022-10-16T10:39:33.127Z,97398.00
2022-10-16T10:43:10.219Z,97398.00
2022-10-16T10:45:47.909Z,97389.00
2022-10-16T10:48:43.250Z,97384.00
2022-10-16T10:52:06.644Z,97392.00
2022-10-16T10:54:44.071Z,97390.00
2022-10-16T10:57:32.245Z,97397.00
2022-10-16T11:00:18.426Z,97398.00
2022-10-16T11:03:26.403Z,97385.00
2022-10-16T11:06:25.481Z,97379.00
2022-10-16T11:09:01.989Z,97382.00
2022-10-16T11:11:41.874Z,97374.00
2022-10-16T11:14:21.536Z,97378.00
2022-10-16T11:16:59.666Z,97376.00
2022-10-16T11:20:01.634Z,97381.00
2022-10-16T11:22:38.238Z,97371.00
2022-10-16T11:25:40.528Z,97377.00
2022-10-16T11:28:21.268Z,97387.00
2022-10-16T11:31:01.446Z,97377.00
2022-10-16T11:33:50.692Z,97383.00
2022-10-16T11:36:38.584Z,97382.00
2022-10-16T11:39:19.429Z,97378.00
2022-10-16T11:42:09.298Z,97372.00
2022-10-16T11:44:48.510Z,97366.00
2022-10-16T11:47:54.391Z,97364.00
2022-10-16T11:51:01.568Z,97376.00
2022-10-16T11:54:08.796Z,97366.00
2022-10-16T11:56:40.238Z,97368.00
2022-10-16T11:59:31.823Z,97376.00
2022-10-16T12:02:39.100Z,97363.00
2022-10-16T12:05:30.785Z,97354.00
2022-10-16T12:08:17.667Z,97362.00
2022-10-16T12:10:47.480Z,97367.00
2022-10-16T12:13:41.226Z,97372.00
2022-10-16T12:16:28.264Z,97366.00
2022-10-16T12:19:14.274Z,97373.00
2022-10-16T12:21:42.447Z,97374.00
2022-10-16T12:24:39.290Z,97373.00
2022-10-16T12:27:28.214Z,97387.00
2022-10-16T12:30:23.988Z,97365.00
2022-10-16T12:33:05.698Z,97374.00
2022-10-16T12:35:37.162Z,97375.00
2022-10-16T12:38:47.339Z,97378.00
2022-10-16T12:41:30.486Z,97379.00
2022-10-16T12:43:57.979Z,97376.00
2022-10-16T12:46:36.611Z,97383.00
2022-10-16T12:49:16.663Z,97387.00
2022-10-16T12:51:44.246Z,97384.00
2022-10-16T12:54:30.377Z,97379.00
2022-10-16T12:57:22.521Z,97385.00
2022-10-16T13:00:10.739Z,97388.00
2022-10-16T13:03:01.545Z,97388.00
2022-10-16T13:05:45.281Z,97382.00
2022-10-16T13:08:32.650Z,97384.00
2022-10-16T13:11:56.461Z,97390.00
2022-10-16T13:14:55.398Z,97387.00
2022-10-16T13:18:16.361Z,97397.00
2022-10-16T13:21:32.035Z,97391.00
2022-10-16T13:24:27.827Z,97382.00
2022-10-16T13:27:24.212Z,97391.00
2022-10-16T13:30:02.792Z,97399.00
2022-10-16T13:32:30.419Z,97402.00
2022-10-16T13:34:57.728Z,97400.00
2022-10-16T13:37:26.701Z,97399.00
2022-10-16T13:40:19.668Z,97404.00
2022-10-16T13:42:46.496Z,97405.00
2022-10-16T13:45:26.911Z,97411.00
2022-10-16T13:48:10.790Z,97412.00
2022-10-16T13:50:37.554Z,97419.00
2022-10-16T13:53:13.308Z,97411.00
2022-10-16T13:55:40.516Z,97421.00
2022-10-16T13:58:14.942Z,97415.00
2022-10-16T14:01:00.282Z,97424.00
2022-10-16T14:03:28.542Z,97427.00
2022-10-16T14:05:59.530Z,97432.00
2022-10-16T14:08:28.084Z,97439.00
2022-10-16T14:10:59.051Z,97445.00
2022-10-16T14:13:46.796Z,97437.00
2022-10-16T14:16:21.374Z,97453.00
2022-10-16T14:19:03.746Z,97450.00
2022-10-16T14:21:31.052Z,97450.00
2022-10-16T14:23:58.088Z,97447.00
2022-10-16T14:26:28.419Z,97453.00
2022-10-16T14:29:19.401Z,97452.00
2022-10-16T14:32:02.603Z,97442.00
2022-10-16T14:34:38.128Z,97449.00
2022-10-16T14:37:28.471Z,97451.00
2022-10-16T14:39:56.801Z,97445.00
2022-10-16T14:42:26.025Z,97450.00
2022-10-16T14:44:55.106Z,97454.00
2022-10-16T14:47:27.694Z,97457.00
2022-10-16T14:49:56.861Z,97452.00
2022-10-16T14:52:23.778Z,97459.00
2022-10-16T14:54:51.421Z,97464.00
2022-10-16T14:57:21.785Z,97467.00
2022-10-16T14:59:52.127Z,97467.00
2022-10-16T15:02:31.850Z,97460.00
2022-10-16T15:05:06.416Z,97459.00
2022-10-16T15:07:33.142Z,97465.00
2022-10-16T15:09:59.995Z,97472.00
2022-10-16T15:12:26.751Z,97471.00
2022-10-16T15:14:53.485Z,97471.00
2022-10-16T15:17:22.171Z,97469.00
2022-10-16T15:19:49.111Z,97470.00
2022-10-16T15:22:15.879Z,97468.00
2022-10-16T15:24:42.623Z,97475.00
2022-10-16T15:27:09.455Z,97479.00
2022-10-16T15:29:36.242Z,97484.00
2022-10-16T15:32:03.146Z,97483.00
2022-10-16T15:34:29.919Z,97480.00
2022-10-16T15:36:58.728Z,97484.00
2022-10-16T15:39:25.461Z,97484.00
2022-10-16T15:41:54.125Z,97483.00
2022-10-16T15:44:24.118Z,97484.00
2022-10-16T15:46:51.385Z,97494.00
2022-10-16T15:49:18.131Z,97483.00
2022-10-16T15:51:47.181Z,97491.00
2022-10-16T15:54:14.029Z,97482.00
2022-10-16T15:56:40.797Z,97492.00
2022-10-16T15:59:07.674Z,97492.00
2022-10-16T16:01:36.397Z,97495.00
2022-10-16T16:04:10.880Z,97491.00
2022-10-16T16:06:45.781Z,97491.00
2022-10-16T16:09:14.686Z,97498.00
2022-10-16T16:11:42.541Z,97500.00
2022-10-16T16:14:14.164Z,97511.00
2022-10-16T16:16:42.240Z,97495.00
2022-10-16T16:19:11.732Z,97513.00
2022-10-16T16:21:39.423Z,97501.00
2022-10-16T16:24:09.669Z,97514.00
2022-10-16T16:26:40.539Z,97519.00
2022-10-16T16:29:08.164Z,97512.00
2022-10-16T16:31:35.645Z,97517.00
2022-10-16T16:34:02.563Z,97517.00
2022-10-16T16:36:29.466Z,97522.00
2022-10-16T16:38:58.537Z,97519.00
2022-10-16T16:41:28.764Z,97518.00
2022-10-16T16:43:56.949Z,97519.00
2022-10-16T16:46:23.842Z,97517.00
2022-10-16T16:48:51.268Z,97516.00
2022-10-16T16:51:20.220Z,97529.00
2022-10-16T16:53:50.472Z,97534.00
2022-10-16T16:56:18.898Z,97544.00
2022-10-16T16:58:50.737Z,97543.00
2022-10-16T17:01:20.981Z,97549.00
2022-10-16T17:03:52.645Z,97551.00
2022-10-16T17:06:28.420Z,97550.00
2022-10-16T17:08:55.476Z,97544.00
2022-10-16T17:11:25.837Z,97549.00
2022-10-16T17:13:56.698Z,97561.00
2022-10-16T17:16:33.712Z,97565.00
2022-10-16T17:19:07.158Z,97566.00
2022-10-16T17:21:34.771Z,97562.00
2022-10-16T17:24:02.017Z,97576.00
2022-10-16T17:26:29.122Z,97575.00
2022-10-16T17:28:59.792Z,97578.00
2022-10-16T17:31:30.487Z,97586.00
2022-10-16T17:34:00.806Z,97583.00
2022-10-16T17:36:31.149Z,97584.00
2022-10-16T17:39:04.605Z,97585.00
2022-10-16T17:41:33.007Z,97582.00
2022-10-16T17:44:00.410Z,97595.00
2022-10-16T17:46:27.394Z,97591.00
2022-10-16T17:48:55.609Z,97593.00
2022-10-16T17:51:27.511Z,97595.00
2022-10-16T17:53:58.085Z,97596.00
2022-10-16T17:56:26.310Z,97607.00
2022-10-16T17:58:56.598Z,97614.00
2022-10-16T18:01:27.602Z,97607.00
2022-10-16T18:03:58.844Z,97615.00
2022-10-16T18:06:27.093Z,97612.00
2022-10-16T18:08:56.612Z,97615.00
2022-10-16T18:11:23.753Z,97616.00
2022-10-16T18:13:55.739Z,97620.00
2022-10-16T18:16:23.258Z,97622.00
2022-10-16T18:18:50.251Z,97622.00
2022-10-16T18:21:19.399Z,97621.00
2022-10-16T18:23:51.005Z,97629.00
2022-10-16T18:26:19.781Z,97627.00
2022-10-16T18:28:46.645Z,97620.00
2022-10-16T18:31:16.909Z,97624.00
2022-10-16T18:33:48.483Z,97619.00
2022-10-16T18:36:18.324Z,97619.00
2022-10-16T18:38:45.289Z,97622.00
2022-10-16T18:41:12.431Z,97622.00
2022-10-16T18:43:39.643Z,97628.00
2022-10-16T18:46:11.558Z,97624.00
2022-10-16T18:48:39.824Z,97624.00
2022-10-16T18:51:28.825Z,97631.00
2022-10-16T18:54:09.003Z,97635.00
2022-10-16T18:56:36.180Z,97636.00
2022-10-16T18:59:05.563Z,97641.00
2022-10-16T19:01:35.322Z,97650.00
2022-10-16T19:04:15.306Z,97653.00
2022-10-16T19:06:49.484Z,97656.00
2022-10-16T19:09:19.010Z,97651.00
2022-10-16T19:11:45.834Z,97648.00
2022-10-16T19:14:15.129Z,97642.00
2022-10-16T19:16:43.028Z,97636.00
2022-10-16T19:19:16.078Z,97642.00
2022-10-16T19:21:43.474Z,97649.00
2022-10-16T19:24:14.390Z,97653.00
2022-10-16T19:26:42.478Z,97653.00
2022-10-16T19:29:10.565Z,97656.00
2022-10-16T19:31:37.504Z,97662.00
2022-10-16T19:34:06.610Z,97666.00
2022-10-16T19:36:38.910Z,97665.00
2022-10-16T19:39:12.432Z,97661.00
2022-10-16T19:41:39.465Z,97670.00
2022-10-16T19:44:08.843Z,97667.00
2022-10-16T19:46:36.195Z,97676.00
2022-10-16T19:49:06.642Z,97677.00
2022-10-16T19:51:34.066Z,97678.00
2022-10-16T19:54:08.448Z,97677.00
2022-10-16T19:56:36.175Z,97681.00
2022-10-16T19:59:04.489Z,97687.00
2022-10-16T20:01:32.703Z,97685.00
2022-10-16T20:04:00.055Z,97692.00
2022-10-16T20:06:27.160Z,97695.00
2022-10-16T20:08:55.246Z,97688.00
2022-10-16T20:11:26.383Z,97689.00
2022-10-16T20:13:53.190Z,97682.00
2022-10-16T20:16:20.286Z,97697.00
2022-10-16T20:18:49.321Z,97703.00
2022-10-16T20:21:23.591Z,97700.00
2022-10-16T20:23:51.080Z,97697.00
2022-10-16T20:26:20.227Z,97703.00
2022-10-16T20:28:47.061Z,97696.00
2022-10-16T20:31:26.656Z,97706.00
2022-10-16T20:33:56.383Z,97716.00
2022-10-16T20:36:25.882Z,97709.00
2022-10-16T20:38:53.287Z,97713.00
2022-10-16T20:41:20.917Z,97715.00
2022-10-16T20:43:52.065Z,97714.00
2022-10-16T20:46:23.540Z,97716.00
2022-10-16T20:48:52.808Z,97715.00
2022-10-16T20:51:24.413Z,97716.00
2022-10-16T20:54:00.863Z,97719.00
2022-10-16T20:56:30.281Z,97719.00
2022-10-16T20:58:57.189Z,97714.00
2022-10-16T21:01:27.281Z,97714.00
2022-10-16T21:04:01.648Z,97723.00
2022-10-16T21:06:29.540Z,97720.00
2022-10-16T21:08:56.634Z,97725.00
2022-10-16T21:11:27.823Z,97729.00
2022-10-16T21:14:00.176Z,97732.00
2022-10-16T21:16:27.993Z,97725.00
2022-10-16T21:18:55.340Z,97736.00
2022-10-16T21:21:24.622Z,97740.00
2022-10-16T21:23:52.417Z,97733.00
2022-10-16T21:26:27.673Z,97723.00
2022-10-16T21:29:00.603Z,97722.00
2022-10-16T21:31:27.665Z,97725.00
2022-10-16T21:33:56.433Z,97728.00
2022-10-16T21:36:33.301Z,97723.00
2022-10-16T21:39:10.420Z,97726.00
2022-10-16T21:41:38.354Z,97733.00
2022-10-16T21:44:06.054Z,97732.00
2022-10-16T21:46:36.437Z,97740.00
2022-10-16T21:49:05.948Z,97728.00
2022-10-16T21:51:39.952Z,97742.00
2022-10-16T21:54:10.577Z,97743.00
2022-10-16T21:56:37.316Z,97736.00
2022-10-16T21:59:05.752Z,97738.00
2022-10-16T22:01:32.941Z,97744.00
2022-10-16T22:03:59.926Z,97739.00
2022-10-16T22:06:28.395Z,97734.00
2022-10-16T22:08:59.948Z,97729.00
2022-10-16T22:11:36.748Z,97741.00
2022-10-16T22:14:11.353Z,97740.00
2022-10-16T22:16:38.417Z,97738.00
2022-10-16T22:19:09.626Z,97736.00
2022-10-16T22:21:39.667Z,97736.00
2022-10-16T22:24:07.434Z,97741.00
2022-10-16T22:26:35.533Z,97740.00
2022-10-16T22:29:02.498Z,97738.00
2022-10-16T22:31:29.357Z,97740.00
2022-10-16T22:34:02.690Z,97740.00
2022-10-16T22:36:30.547Z,97740.00
2022-10-16T22:38:57.856Z,97746.00
2022-10-16T22:41:24.901Z,97750.00
2022-10-16T22:43:52.154Z,97741.00
2022-10-16T22:46:29.227Z,97756.00
2022-10-16T22:48:57.341Z,97744.00
2022-10-16T22:51:26.698Z,97745.00
2022-10-16T22:53:53.520Z,97750.00
2022-10-16T22:56:22.000Z,97752.00
2022-10-16T22:58:48.946Z,97751.00
2022-10-16T23:01:42.411Z,97755.00
2022-10-16T23:04:09.316Z,97746.00
2022-10-16T23:06:36.123Z,97748.00
2022-10-16T23:09:03.775Z,97753.00
2022-10-16T23:11:30.976Z,97753.00
2022-10-16T23:13:57.827Z,97753.00
2022-10-16T23:16:25.363Z,97752.00
2022-10-16T23:18:52.228Z,97757.00
2022-10-16T23:21:24.096Z,97759.00
2022-10-16T23:23:53.019Z,97773.00
2022-10-16T23:26:23.719Z,97765.00
2022-10-16T23:28:50.905Z,97771.00
2022-10-16T23:31:18.938Z,97761.00
2022-10-16T23:33:45.728Z,97765.00
2022-10-16T23:36:17.734Z,97772.00
2022-10-16T23:38:45.134Z,97768.00
2022-10-16T23:41:12.738Z,97770.00
2022-10-16T23:43:39.622Z,97769.00
2022-10-16T23:46:08.989Z,97774.00
2022-10-16T23:48:38.223Z,97769.00
2022-10-16T23:51:06.963Z,97775.00
2022-10-16T23:53:34.088Z,97766.00
2022-10-16T23:56:00.843Z,97767.00
2022-10-16T23:58:27.584Z,97762.00
